createdAt,value
2019-03-10T00:02:49.107Z,94.70
2019-03-10T00:06:52.708Z,94.80
2019-03-10T00:10:56.320Z,94.70
2019-03-10T00:14:59.911Z,94.60
2019-03-10T00:19:03.556Z,94.30
2019-03-10T00:23:07.559Z,94.50
2019-03-10T00:27:11.156Z,94.60
2019-03-10T00:31:14.764Z,94.40
2019-03-10T00:35:18.468Z,94.20
2019-03-10T00:39:25.144Z,94.10
2019-03-10T00:43:43.959Z,94.40
2019-03-10T00:48:02.063Z,94.40
2019-03-10T00:52:17.746Z,94.80
2019-03-10T00:56:21.313Z,94.70
2019-03-10T01:00:24.971Z,94.80
2019-03-10T01:04:28.568Z,94.80
2019-03-10T01:08:32.407Z,95.10
2019-03-10T01:12:39.051Z,95.20
2019-03-10T01:16:43.493Z,95.20
2019-03-10T01:20:48.347Z,95.10
2019-03-10T01:24:51.935Z,95.10
2019-03-10T01:28:55.527Z,94.90
2019-03-10T01:33:20.294Z,94.80
2019-03-10T01:37:23.922Z,94.80
2019-03-10T01:41:27.594Z,94.80
2019-03-10T01:45:31.188Z,94.90
2019-03-10T01:49:34.739Z,95.00
2019-03-10T01:53:38.364Z,95.20
2019-03-10T01:57:42.003Z,95.10
2019-03-10T02:01:45.614Z,94.90
2019-03-10T02:05:49.193Z,94.90
2019-03-10T02:09:52.929Z,94.90
2019-03-10T02:13:56.619Z,94.80
2019-03-10T02:18:00.250Z,95.00
2019-03-10T02:22:03.958Z,94.80
2019-03-10T02:26:07.537Z,94.80
2019-03-10T02:30:13.806Z,94.60
2019-03-10T02:34:17.377Z,94.80
2019-03-10T02:38:21.008Z,94.90
2019-03-10T02:42:24.622Z,94.90
2019-03-10T02:46:28.233Z,94.90
2019-03-10T02:50:31.830Z,95.20
2019-03-10T02:54:35.400Z,95.00
2019-03-10T02:58:39.004Z,95.10
2019-03-10T03:02:42.612Z,95.10
2019-03-10T03:06:46.187Z,95.00
2019-03-10T03:10:49.783Z,95.20
2019-03-10T03:14:53.383Z,95.00
2019-03-10T03:18:56.997Z,95.00
2019-03-10T03:23:00.660Z,95.20
2019-03-10T03:27:04.227Z,94.90
2019-03-10T03:31:07.809Z,94.90
2019-03-10T03:35:32.860Z,94.80
2019-03-10T03:39:36.552Z,94.80
2019-03-10T03:43:40.197Z,94.90
2019-03-10T03:47:43.803Z,94.50
2019-03-10T03:51:47.399Z,94.60
2019-03-10T03:55:51.002Z,94.80
2019-03-10T03:59:54.599Z,94.80
2019-03-10T04:03:58.203Z,95.00
2019-03-10T04:08:01.781Z,95.20
2019-03-10T04:12:05.374Z,95.20
2019-03-10T04:16:08.952Z,95.00
2019-03-10T04:20:12.633Z,94.90
2019-03-10T04:24:16.272Z,95.00
2019-03-10T04:28:19.843Z,94.90
2019-03-10T04:32:23.460Z,94.50
2019-03-10T04:36:27.031Z,94.80
2019-03-10T04:40:30.630Z,95.10
2019-03-10T04:44:36.206Z,95.50
2019-03-10T04:48:42.527Z,95.10
2019-03-10T04:52:46.122Z,95.00
2019-03-10T04:56:51.439Z,95.00
2019-03-10T05:00:56.680Z,95.50
2019-03-10T05:05:00.353Z,95.60
2019-03-10T05:09:06.944Z,95.60
2019-03-10T05:13:10.542Z,95.40
2019-03-10T05:17:14.142Z,95.60
2019-03-10T05:21:17.959Z,95.60
2019-03-10T05:25:23.092Z,95.70
2019-03-10T05:29:26.761Z,95.60
2019-03-10T05:33:30.327Z,95.30
2019-03-10T05:37:33.907Z,95.80
2019-03-10T05:41:37.486Z,95.80
2019-03-10T05:45:41.231Z,95.90
2019-03-10T05:49:44.786Z,95.90
2019-03-10T05:53:48.365Z,95.80
2019-03-10T05:57:51.975Z,95.50
2019-03-10T06:01:55.565Z,96.00
2019-03-10T06:05:59.185Z,95.80
2019-03-10T06:10:02.824Z,95.90
2019-03-10T06:14:06.450Z,95.70
2019-03-10T06:18:13.860Z,95.80
2019-03-10T06:22:14.967Z,95.70
2019-03-10T06:26:18.595Z,95.90
2019-03-10T06:30:22.161Z,95.60
2019-03-10T06:34:25.738Z,96.00
2019-03-10T06:38:29.323Z,95.80
2019-03-10T06:42:32.931Z,96.00
2019-03-10T06:46:36.527Z,95.70
2019-03-10T06:50:40.113Z,95.60
2019-03-10T06:54:43.698Z,95.50
2019-03-10T06:58:47.287Z,95.40
2019-03-10T07:02:50.883Z,95.20
2019-03-10T07:06:54.567Z,95.30
2019-03-10T07:10:58.219Z,95.80
2019-03-10T07:15:01.838Z,95.40
2019-03-10T07:19:05.410Z,95.80
2019-03-10T07:23:10.653Z,95.90
2019-03-10T07:27:13.495Z,95.40
2019-03-10T07:31:24.932Z,94.50
2019-03-10T07:35:32.722Z,94.50
2019-03-10T07:39:46.989Z,94.10
2019-03-10T07:43:52.227Z,93.80
2019-03-10T07:47:57.459Z,93.90
2019-03-10T07:52:05.396Z,93.40
2019-03-10T07:56:16.645Z,93.60
2019-03-10T08:00:24.615Z,93.60
2019-03-10T08:04:38.375Z,93.20
2019-03-10T08:08:52.575Z,93.30
2019-03-10T08:12:57.911Z,93.10
2019-03-10T08:17:02.356Z,93.60
2019-03-10T08:21:22.655Z,93.70
2019-03-10T08:25:34.148Z,93.80
2019-03-10T08:29:42.479Z,93.30
2019-03-10T08:33:53.678Z,93.90
2019-03-10T08:37:58.930Z,93.90
2019-03-10T08:42:07.123Z,93.20
2019-03-10T08:46:12.359Z,93.60
2019-03-10T08:50:26.495Z,94.00
2019-03-10T08:54:31.739Z,94.10
2019-03-10T08:59:01.050Z,93.60
2019-03-10T09:03:12.144Z,93.50
2019-03-10T09:07:33.711Z,92.90
2019-03-10T09:11:38.989Z,92.90
2019-03-10T09:15:50.119Z,93.40
2019-03-10T09:19:55.768Z,92.90
2019-03-10T09:24:06.948Z,92.70
2019-03-10T09:28:21.070Z,93.00
2019-03-10T09:32:41.304Z,92.80
2019-03-10T09:36:55.907Z,92.40
2019-03-10T09:41:12.825Z,92.50
2019-03-10T09:45:34.084Z,92.20
2019-03-10T09:54:05.695Z,90.70
2019-03-10T09:58:13.912Z,91.00
2019-03-10T10:02:37.355Z,91.40
2019-03-10T10:06:42.616Z,90.50
2019-03-10T10:10:47.863Z,90.70
2019-03-10T10:14:53.109Z,90.40
2019-03-10T10:19:10.413Z,90.50
2019-03-10T10:23:15.639Z,90.90
2019-03-10T10:27:37.080Z,91.20
2019-03-10T10:36:07.124Z,90.40
2019-03-10T10:40:18.332Z,90.70
2019-03-10T10:44:23.550Z,90.80
2019-03-10T10:48:28.843Z,90.70
2019-03-10T10:52:37.171Z,90.70
2019-03-10T10:56:48.562Z,90.40
2019-03-10T11:01:10.043Z,90.30
2019-03-10T11:05:21.497Z,90.90
2019-03-10T11:09:43.269Z,90.10
2019-03-10T11:14:04.723Z,89.80
2019-03-10T11:18:26.153Z,88.50
2019-03-10T11:22:37.287Z,88.20
2019-03-10T11:26:58.759Z,89.00
2019-03-10T11:31:04.063Z,89.70
2019-03-10T11:35:10.427Z,87.00
2019-03-10T11:39:15.746Z,90.70
2019-03-10T11:43:29.975Z,92.10
2019-03-10T11:47:50.207Z,92.70
2019-03-10T11:52:01.522Z,93.20
2019-03-10T11:56:12.895Z,92.60
2019-03-10T12:00:18.931Z,92.60
2019-03-10T12:04:24.155Z,92.70
2019-03-10T12:08:35.410Z,91.70
2019-03-10T12:12:39.075Z,93.00
2019-03-10T12:16:42.763Z,93.80
2019-03-10T12:20:46.340Z,92.50
2019-03-10T12:24:49.945Z,91.70
2019-03-10T12:28:53.546Z,93.10
2019-03-10T12:32:57.159Z,92.50
2019-03-10T12:37:00.755Z,92.10
2019-03-10T12:41:04.335Z,92.30
2019-03-10T12:45:10.639Z,91.40
2019-03-10T12:49:14.240Z,90.60
2019-03-10T12:53:17.932Z,88.00
2019-03-10T12:57:21.535Z,90.00
2019-03-10T13:01:25.104Z,88.90
2019-03-10T13:05:28.723Z,88.50
2019-03-10T13:09:32.327Z,89.80
2019-03-10T13:13:35.986Z,89.80
2019-03-10T13:17:39.574Z,90.00
2019-03-10T13:21:43.256Z,90.90
2019-03-10T13:25:46.916Z,90.50
2019-03-10T13:29:50.511Z,90.30
2019-03-10T13:33:54.278Z,90.40
2019-03-10T13:37:57.810Z,90.60
2019-03-10T13:42:01.407Z,91.00
2019-03-10T13:46:05.031Z,91.50
2019-03-10T13:50:14.304Z,92.60
2019-03-10T13:54:17.895Z,91.40
2019-03-10T13:58:21.528Z,91.80
2019-03-10T14:02:25.115Z,93.20
2019-03-10T14:06:28.789Z,92.50
2019-03-10T14:10:32.384Z,93.20
2019-03-10T14:14:35.979Z,93.70
2019-03-10T14:18:41.496Z,94.00
2019-03-10T14:22:45.095Z,94.10
2019-03-10T14:26:48.707Z,94.60
2019-03-10T14:30:52.461Z,95.10
2019-03-10T14:34:56.290Z,94.80
2019-03-10T14:38:59.895Z,94.60
2019-03-10T14:43:03.756Z,94.70
2019-03-10T14:47:07.391Z,95.30
2019-03-10T14:51:13.485Z,94.80
2019-03-10T14:55:19.803Z,94.40
2019-03-10T14:59:23.555Z,94.20
2019-03-10T15:03:27.156Z,94.90
2019-03-10T15:07:30.800Z,95.60
2019-03-10T15:11:34.661Z,95.70
2019-03-10T15:15:38.257Z,96.20
2019-03-10T15:19:41.856Z,96.10
2019-03-10T15:23:45.428Z,96.10
2019-03-10T15:27:49.016Z,96.20
2019-03-10T15:31:52.932Z,96.80
2019-03-10T15:35:56.569Z,97.10
2019-03-10T15:40:00.274Z,97.30
2019-03-10T15:44:04.010Z,97.00
2019-03-10T15:48:07.656Z,97.10
2019-03-10T15:52:11.239Z,96.90
2019-03-10T15:56:14.808Z,97.10
2019-03-10T16:00:21.450Z,97.30
2019-03-10T16:04:25.042Z,97.40
2019-03-10T16:08:28.615Z,97.50
2019-03-10T16:12:32.207Z,97.60
2019-03-10T16:16:35.805Z,97.60
2019-03-10T16:20:39.408Z,98.00
2019-03-10T16:24:42.974Z,98.10
2019-03-10T16:28:46.576Z,98.30
2019-03-10T16:32:50.229Z,98.40
2019-03-10T16:36:53.835Z,98.50
2019-03-10T16:40:57.466Z,98.50
2019-03-10T16:45:01.015Z,99.00
2019-03-10T16:49:04.695Z,98.60
2019-03-10T16:53:08.280Z,98.50
2019-03-10T16:57:11.883Z,98.60
2019-03-10T17:01:15.504Z,98.60
2019-03-10T17:05:21.373Z,98.60
2019-03-10T17:09:25.295Z,98.60
2019-03-10T17:13:28.885Z,98.50
2019-03-10T17:17:32.561Z,98.70
2019-03-10T17:21:36.260Z,98.60
2019-03-10T17:25:39.828Z,98.80
2019-03-10T17:29:43.456Z,99.00
2019-03-10T17:33:47.135Z,99.30
2019-03-10T17:37:50.738Z,99.50
2019-03-10T17:41:54.328Z,99.80
2019-03-10T17:45:57.948Z,99.90
2019-03-10T17:50:01.517Z,99.90
2019-03-10T17:54:05.163Z,99.90
2019-03-10T17:58:08.769Z,99.90
2019-03-10T18:02:12.388Z,99.90
2019-03-10T18:06:16.003Z,99.90
2019-03-10T18:10:19.575Z,99.90
2019-03-10T18:14:25.361Z,99.90
2019-03-10T18:18:28.938Z,99.90
2019-03-10T18:22:32.547Z,99.90
2019-03-10T18:26:36.175Z,99.90
2019-03-10T18:30:39.766Z,99.90
2019-03-10T18:34:43.364Z,99.90
2019-03-10T18:38:47.271Z,99.90
2019-03-10T18:42:51.367Z,99.90
2019-03-10T18:46:55.111Z,99.90
2019-03-10T18:50:58.680Z,99.90
2019-03-10T18:55:04.431Z,99.90
2019-03-10T18:59:08.039Z,99.90
2019-03-10T19:03:11.679Z,99.90
2019-03-10T19:07:15.314Z,99.90
2019-03-10T19:11:18.907Z,99.90
2019-03-10T19:15:25.646Z,99.90
2019-03-10T19:19:31.763Z,99.90
2019-03-10T19:23:33.702Z,99.90
2019-03-10T19:27:37.328Z,99.90
2019-03-10T19:31:41.033Z,99.90
2019-03-10T19:35:44.713Z,99.90
2019-03-10T19:39:49.611Z,99.90
2019-03-10T19:43:53.181Z,99.90
2019-03-10T19:47:56.780Z,99.90
2019-03-10T19:52:00.791Z,99.90
2019-03-10T19:56:04.465Z,99.90
2019-03-10T20:00:11.477Z,99.90
2019-03-10T20:04:34.404Z,99.90
2019-03-10T20:08:38.001Z,99.90
2019-03-10T20:12:41.584Z,99.90
2019-03-10T20:16:45.205Z,99.90
2019-03-10T20:20:48.813Z,99.90
2019-03-10T20:24:52.437Z,99.90
2019-03-10T20:28:56.072Z,99.90
2019-03-10T20:32:59.693Z,99.90
2019-03-10T20:37:03.271Z,99.90
2019-03-10T20:41:06.852Z,99.90
2019-03-10T20:45:11.084Z,99.90
2019-03-10T20:49:14.784Z,99.90
2019-03-10T20:53:18.398Z,99.90
2019-03-10T20:57:22.064Z,99.90
2019-03-10T21:01:25.669Z,99.90
2019-03-10T21:05:29.490Z,99.90
2019-03-10T21:09:33.135Z,99.90
2019-03-10T21:13:36.735Z,99.90
2019-03-10T21:17:40.347Z,99.90
2019-03-10T21:21:43.968Z,99.90
2019-03-10T21:25:47.563Z,99.90
2019-03-10T21:29:51.329Z,99.90
2019-03-10T21:33:54.990Z,99.90
2019-03-10T21:37:58.649Z,99.90
2019-03-10T21:42:02.372Z,99.90
2019-03-10T21:46:07.591Z,99.90
2019-03-10T21:50:18.979Z,99.90
2019-03-10T21:54:22.692Z,99.90
2019-03-10T21:58:26.424Z,99.90
2019-03-10T22:02:30.011Z,99.90
2019-03-10T22:06:33.617Z,99.90
2019-03-10T22:10:37.234Z,99.90
2019-03-10T22:14:40.831Z,99.90
2019-03-10T22:18:44.418Z,99.90
2019-03-10T22:22:49.585Z,99.90
2019-03-10T22:26:53.267Z,99.90
2019-03-10T22:30:56.875Z,99.90
2019-03-10T22:35:00.498Z,99.90
2019-03-10T22:39:05.515Z,99.90
2019-03-10T22:43:09.106Z,99.90
2019-03-10T22:47:12.686Z,99.90
2019-03-10T22:51:16.285Z,99.90
2019-03-10T22:55:19.999Z,99.90
2019-03-10T22:59:23.579Z,99.90
2019-03-10T23:03:27.198Z,99.90
2019-03-10T23:07:30.798Z,99.90
2019-03-10T23:11:34.402Z,99.90
2019-03-10T23:15:37.974Z,99.90
2019-03-10T23:19:41.543Z,99.90
2019-03-10T23:23:45.436Z,99.90
2019-03-10T23:27:48.983Z,99.90
2019-03-10T23:31:52.615Z,99.90
2019-03-10T23:35:56.217Z,99.90
2019-03-10T23:39:59.808Z,99.90
2019-03-10T23:44:03.516Z,99.90
2019-03-10T23:48:07.136Z,99.90
2019-03-10T23:52:10.741Z,99.90
2019-03-10T23:56:14.355Z,99.90
